sensor_id;sensor_type;location;lat;lon;timestamp;temperature;humidity
35246;DHT22;21379;50.962;6.960;2023-02-24T00:02:41;7.60;99.90
35246;DHT22;21379;50.962;6.960;2023-02-24T00:05:08;7.50;99.90
35246;DHT22;21379;50.962;6.960;2023-02-24T00:07:35;7.40;99.90
35246;DHT22;21379;50.962;6.960;2023-02-24T00:10:02;7.30;99.90
35246;DHT22;21379;50.962;6.960;2023-02-24T00:12:29;7.30;99.90
35246;DHT22;21379;50.962;6.960;2023-02-24T00:14:56;7.30;99.90
35246;DHT22;21379;50.962;6.960;2023-02-24T00:17:23;7.30;99.90
35246;DHT22;21379;50.962;6.960;2023-02-24T00:19:53;7.30;99.90
35246;DHT22;21379;50.962;6.960;2023-02-24T00:22:20;7.30;99.90
35246;DHT22;21379;50.962;6.960;2023-02-24T00:24:47;7.20;99.90
35246;DHT22;21379;50.962;6.960;2023-02-24T00:27:14;7.10;99.90
35246;DHT22;21379;50.962;6.960;2023-02-24T00:29:44;7.10;99.90
35246;DHT22;21379;50.962;6.960;2023-02-24T00:32:11;7.10;99.90
35246;DHT22;21379;50.962;6.960;2023-02-24T00:34:39;7.00;99.90
35246;DHT22;21379;50.962;6.960;2023-02-24T00:37:07;6.90;99.90
35246;DHT22;21379;50.962;6.960;2023-02-24T00:39:35;6.90;99.90
35246;DHT22;21379;50.962;6.960;2023-02-24T00:42:05;6.90;99.90
35246;DHT22;21379;50.962;6.960;2023-02-24T00:44:35;6.80;99.90
35246;DHT22;21379;50.962;6.960;2023-02-24T00:47:03;6.80;99.90
35246;DHT22;21379;50.962;6.960;2023-02-24T00:49:31;6.80;99.90
35246;DHT22;21379;50.962;6.960;2023-02-24T00:51:59;6.80;99.90
35246;DHT22;21379;50.962;6.960;2023-02-24T00:54:27;6.70;99.90
35246;DHT22;21379;50.962;6.960;2023-02-24T00:56:55;6.70;99.90
35246;DHT22;21379;50.962;6.960;2023-02-24T00:59:22;6.70;99.90
35246;DHT22;21379;50.962;6.960;2023-02-24T01:01:50;6.60;99.90
35246;DHT22;21379;50.962;6.960;2023-02-24T01:04:17;6.70;99.90
35246;DHT22;21379;50.962;6.960;2023-02-24T01:06:47;6.60;99.90
35246;DHT22;21379;50.962;6.960;2023-02-24T01:09:16;6.60;99.90
35246;DHT22;21379;50.962;6.960;2023-02-24T01:11:46;6.60;99.90
35246;DHT22;21379;50.962;6.960;2023-02-24T01:14:34;6.60;99.90
35246;DHT22;21379;50.962;6.960;2023-02-24T01:17:01;6.50;99.90
35246;DHT22;21379;50.962;6.960;2023-02-24T01:19:30;6.50;99.90
35246;DHT22;21379;50.962;6.960;2023-02-24T01:21:58;6.50;99.90
35246;DHT22;21379;50.962;6.960;2023-02-24T01:24:25;6.60;99.90
35246;DHT22;21379;50.962;6.960;2023-02-24T01:26:54;6.60;99.90
35246;DHT22;21379;50.962;6.960;2023-02-24T01:29:21;6.60;99.90
35246;DHT22;21379;50.962;6.960;2023-02-24T01:31:50;6.60;99.90
35246;DHT22;21379;50.962;6.960;2023-02-24T01:34:17;6.50;99.90
35246;DHT22;21379;50.962;6.960;2023-02-24T01:36:44;6.50;99.90
35246;DHT22;21379;50.962;6.960;2023-02-24T01:39:11;6.50;99.90
35246;DHT22;21379;50.962;6.960;2023-02-24T01:41:40;6.50;99.90
35246;DHT22;21379;50.962;6.960;2023-02-24T01:47:10;6.50;99.90
35246;DHT22;21379;50.962;6.960;2023-02-24T01:49:39;6.50;99.90
35246;DHT22;21379;50.962;6.960;2023-02-24T01:52:09;6.50;99.90
35246;DHT22;21379;50.962;6.960;2023-02-24T01:54:40;6.50;99.90
35246;DHT22;21379;50.962;6.960;2023-02-24T01:57:08;6.50;99.90
35246;DHT22;21379;50.962;6.960;2023-02-24T01:59:36;6.50;99.90
35246;DHT22;21379;50.962;6.960;2023-02-24T02:02:04;6.50;99.90
35246;DHT22;21379;50.962;6.960;2023-02-24T02:04:38;6.50;99.90
35246;DHT22;21379;50.962;6.960;2023-02-24T02:07:07;6.50;99.90
35246;DHT22;21379;50.962;6.960;2023-02-24T02:09:35;6.40;99.90
35246;DHT22;21379;50.962;6.960;2023-02-24T02:12:02;6.40;99.90
35246;DHT22;21379;50.962;6.960;2023-02-24T02:14:30;6.40;99.90
35246;DHT22;21379;50.962;6.960;2023-02-24T02:17:06;6.30;99.90
35246;DHT22;21379;50.962;6.960;2023-02-24T02:22:59;6.30;99.90
35246;DHT22;21379;50.962;6.960;2023-02-24T02:25:44;6.20;99.90
35246;DHT22;21379;50.962;6.960;2023-02-24T02:28:40;6.20;99.90
35246;DHT22;21379;50.962;6.960;2023-02-24T02:31:39;6.10;99.90
35246;DHT22;21379;50.962;6.960;2023-02-24T02:34:28;6.10;99.90
35246;DHT22;21379;50.962;6.960;2023-02-24T02:37:03;6.20;99.90
35246;DHT22;21379;50.962;6.960;2023-02-24T02:39:45;6.10;99.90
35246;DHT22;21379;50.962;6.960;2023-02-24T02:42:24;6.10;99.90
35246;DHT22;21379;50.962;6.960;2023-02-24T02:45:01;6.10;99.90
35246;DHT22;21379;50.962;6.960;2023-02-24T02:47:34;6.10;99.90
35246;DHT22;21379;50.962;6.960;2023-02-24T02:50:11;6.10;99.90
35246;DHT22;21379;50.962;6.960;2023-02-24T02:52:48;6.00;99.90
35246;DHT22;21379;50.962;6.960;2023-02-24T02:55:22;6.00;99.90
35246;DHT22;21379;50.962;6.960;2023-02-24T02:57:53;6.00;99.90
35246;DHT22;21379;50.962;6.960;2023-02-24T03:00:24;5.90;99.90
35246;DHT22;21379;50.962;6.960;2023-02-24T03:02:57;5.90;99.90
35246;DHT22;21379;50.962;6.960;2023-02-24T03:05:33;5.80;99.90
35246;DHT22;21379;50.962;6.960;2023-02-24T03:08:02;5.80;99.90
35246;DHT22;21379;50.962;6.960;2023-02-24T03:10:32;5.80;99.90
35246;DHT22;21379;50.962;6.960;2023-02-24T03:13:01;5.80;99.90
35246;DHT22;21379;50.962;6.960;2023-02-24T03:15:31;5.80;99.90
35246;DHT22;21379;50.962;6.960;2023-02-24T03:18:02;5.70;99.90
35246;DHT22;21379;50.962;6.960;2023-02-24T03:20:40;5.80;99.90
35246;DHT22;21379;50.962;6.960;2023-02-24T03:23:11;5.70;99.90
35246;DHT22;21379;50.962;6.960;2023-02-24T03:25:46;5.70;99.90
35246;DHT22;21379;50.962;6.960;2023-02-24T03:28:19;5.70;99.90
35246;DHT22;21379;50.962;6.960;2023-02-24T03:30:54;5.60;99.90
35246;DHT22;21379;50.962;6.960;2023-02-24T03:33:27;5.60;99.90
35246;DHT22;21379;50.962;6.960;2023-02-24T03:35:57;5.60;99.90
35246;DHT22;21379;50.962;6.960;2023-02-24T03:38:27;5.60;99.90
35246;DHT22;21379;50.962;6.960;2023-02-24T03:40:55;5.60;99.90
35246;DHT22;21379;50.962;6.960;2023-02-24T03:43:25;5.50;99.90
35246;DHT22;21379;50.962;6.960;2023-02-24T03:45:54;5.50;99.90
35246;DHT22;21379;50.962;6.960;2023-02-24T03:48:22;5.50;99.90
35246;DHT22;21379;50.962;6.960;2023-02-24T03:50:50;5.50;99.90
35246;DHT22;21379;50.962;6.960;2023-02-24T03:53:30;5.50;99.90
35246;DHT22;21379;50.962;6.960;2023-02-24T03:56:14;5.50;99.90
35246;DHT22;21379;50.962;6.960;2023-02-24T03:58:55;5.50;99.90
35246;DHT22;21379;50.962;6.960;2023-02-24T04:01:33;5.50;99.90
35246;DHT22;21379;50.962;6.960;2023-02-24T04:04:06;5.50;99.90
35246;DHT22;21379;50.962;6.960;2023-02-24T04:06:40;5.50;99.90
35246;DHT22;21379;50.962;6.960;2023-02-24T04:09:15;5.50;99.90
35246;DHT22;21379;50.962;6.960;2023-02-24T04:11:47;5.50;99.90
35246;DHT22;21379;50.962;6.960;2023-02-24T04:14:20;5.50;99.90
35246;DHT22;21379;50.962;6.960;2023-02-24T04:16:53;5.50;99.90
35246;DHT22;21379;50.962;6.960;2023-02-24T04:19:22;5.50;99.90
35246;DHT22;21379;50.962;6.960;2023-02-24T04:21:53;5.50;99.90
35246;DHT22;21379;50.962;6.960;2023-02-24T04:24:26;5.50;99.90
35246;DHT22;21379;50.962;6.960;2023-02-24T04:26:56;5.50;99.90
35246;DHT22;21379;50.962;6.960;2023-02-24T04:29:28;5.50;99.90
35246;DHT22;21379;50.962;6.960;2023-02-24T04:32:02;5.50;99.90
35246;DHT22;21379;50.962;6.960;2023-02-24T04:34:30;5.50;99.90
35246;DHT22;21379;50.962;6.960;2023-02-24T04:36:58;5.40;99.90
35246;DHT22;21379;50.962;6.960;2023-02-24T04:39:29;5.40;99.90
35246;DHT22;21379;50.962;6.960;2023-02-24T04:41:56;5.40;99.90
35246;DHT22;21379;50.962;6.960;2023-02-24T04:44:23;5.40;99.90
35246;DHT22;21379;50.962;6.960;2023-02-24T04:46:53;5.40;99.90
35246;DHT22;21379;50.962;6.960;2023-02-24T04:49:20;5.40;99.90
35246;DHT22;21379;50.962;6.960;2023-02-24T04:51:47;5.50;99.90
35246;DHT22;21379;50.962;6.960;2023-02-24T04:54:17;5.50;99.90
35246;DHT22;21379;50.962;6.960;2023-02-24T04:56:46;5.50;99.90
35246;DHT22;21379;50.962;6.960;2023-02-24T04:59:16;5.50;99.90
35246;DHT22;21379;50.962;6.960;2023-02-24T05:01:43;5.50;99.90
35246;DHT22;21379;50.962;6.960;2023-02-24T05:04:11;5.40;99.90
35246;DHT22;21379;50.962;6.960;2023-02-24T05:06:39;5.40;99.90
35246;DHT22;21379;50.962;6.960;2023-02-24T05:09:09;5.40;99.90
35246;DHT22;21379;50.962;6.960;2023-02-24T05:11:39;5.40;99.90
35246;DHT22;21379;50.962;6.960;2023-02-24T05:14:08;5.30;99.90
35246;DHT22;21379;50.962;6.960;2023-02-24T05:16:39;5.30;99.90
35246;DHT22;21379;50.962;6.960;2023-02-24T05:19:07;5.30;99.90
35246;DHT22;21379;50.962;6.960;2023-02-24T05:21:51;5.30;99.90
35246;DHT22;21379;50.962;6.960;2023-02-24T05:24:18;5.20;99.90
35246;DHT22;21379;50.962;6.960;2023-02-24T05:26:45;5.20;99.90
35246;DHT22;21379;50.962;6.960;2023-02-24T05:29:13;5.20;99.90
35246;DHT22;21379;50.962;6.960;2023-02-24T05:31:40;5.20;99.90
35246;DHT22;21379;50.962;6.960;2023-02-24T05:34:07;5.10;99.90
35246;DHT22;21379;50.962;6.960;2023-02-24T05:36:35;5.10;99.90
35246;DHT22;21379;50.962;6.960;2023-02-24T05:39:05;5.10;99.90
35246;DHT22;21379;50.962;6.960;2023-02-24T05:41:33;5.10;99.90
35246;DHT22;21379;50.962;6.960;2023-02-24T05:44:04;5.10;99.90
35246;DHT22;21379;50.962;6.960;2023-02-24T05:46:36;5.00;99.90
35246;DHT22;21379;50.962;6.960;2023-02-24T05:49:04;5.00;99.90
35246;DHT22;21379;50.962;6.960;2023-02-24T05:51:34;5.00;99.90
35246;DHT22;21379;50.962;6.960;2023-02-24T05:54:01;5.00;99.90
35246;DHT22;21379;50.962;6.960;2023-02-24T05:56:30;5.00;99.90
35246;DHT22;21379;50.962;6.960;2023-02-24T05:59:00;4.90;99.90
35246;DHT22;21379;50.962;6.960;2023-02-24T06:01:28;4.90;99.90
35246;DHT22;21379;50.962;6.960;2023-02-24T06:04:00;4.90;99.90
35246;DHT22;21379;50.962;6.960;2023-02-24T06:06:34;4.90;99.90
35246;DHT22;21379;50.962;6.960;2023-02-24T06:09:01;4.90;99.90
35246;DHT22;21379;50.962;6.960;2023-02-24T06:11:33;4.80;99.90
35246;DHT22;21379;50.962;6.960;2023-02-24T06:14:00;4.70;99.90
35246;DHT22;21379;50.962;6.960;2023-02-24T06:16:27;4.70;99.90
35246;DHT22;21379;50.962;6.960;2023-02-24T06:18:56;4.60;99.90
35246;DHT22;21379;50.962;6.960;2023-02-24T06:21:23;4.50;99.90
35246;DHT22;21379;50.962;6.960;2023-02-24T06:23:53;4.50;99.90
35246;DHT22;21379;50.962;6.960;2023-02-24T06:26:20;4.50;99.90
35246;DHT22;21379;50.962;6.960;2023-02-24T06:28:47;4.40;99.90
35246;DHT22;21379;50.962;6.960;2023-02-24T06:31:18;4.50;99.90
35246;DHT22;21379;50.962;6.960;2023-02-24T06:33:46;4.50;99.90
35246;DHT22;21379;50.962;6.960;2023-02-24T06:36:14;4.50;99.90
35246;DHT22;21379;50.962;6.960;2023-02-24T06:38:41;4.40;99.90
35246;DHT22;21379;50.962;6.960;2023-02-24T06:41:08;4.50;99.90
35246;DHT22;21379;50.962;6.960;2023-02-24T06:43:36;4.50;99.90
35246;DHT22;21379;50.962;6.960;2023-02-24T06:46:04;4.60;99.90
35246;DHT22;21379;50.962;6.960;2023-02-24T06:48:32;4.70;99.90
35246;DHT22;21379;50.962;6.960;2023-02-24T06:51:03;4.80;99.90
35246;DHT22;21379;50.962;6.960;2023-02-24T06:53:33;4.70;99.90
35246;DHT22;21379;50.962;6.960;2023-02-24T06:56:04;4.70;99.90
35246;DHT22;21379;50.962;6.960;2023-02-24T06:58:40;4.70;99.90
35246;DHT22;21379;50.962;6.960;2023-02-24T07:01:16;4.80;99.90
35246;DHT22;21379;50.962;6.960;2023-02-24T07:03:44;4.80;99.90
35246;DHT22;21379;50.962;6.960;2023-02-24T07:06:28;4.90;99.90
35246;DHT22;21379;50.962;6.960;2023-02-24T07:08:58;5.00;99.90
35246;DHT22;21379;50.962;6.960;2023-02-24T07:11:27;5.00;99.90
35246;DHT22;21379;50.962;6.960;2023-02-24T07:13:57;5.10;99.90
35246;DHT22;21379;50.962;6.960;2023-02-24T07:16:25;5.10;99.90
35246;DHT22;21379;50.962;6.960;2023-02-24T07:18:54;5.10;99.90
35246;DHT22;21379;50.962;6.960;2023-02-24T07:21:25;5.10;99.90
35246;DHT22;21379;50.962;6.960;2023-02-24T07:23:56;5.10;99.90
35246;DHT22;21379;50.962;6.960;2023-02-24T07:26:24;5.10;99.90
35246;DHT22;21379;50.962;6.960;2023-02-24T07:28:53;5.10;99.90
35246;DHT22;21379;50.962;6.960;2023-02-24T07:31:22;5.10;99.90
35246;DHT22;21379;50.962;6.960;2023-02-24T07:33:52;5.20;99.90
35246;DHT22;21379;50.962;6.960;2023-02-24T07:36:20;5.20;99.90
35246;DHT22;21379;50.962;6.960;2023-02-24T07:38:50;5.30;99.90
35246;DHT22;21379;50.962;6.960;2023-02-24T07:41:21;5.20;99.90
35246;DHT22;21379;50.962;6.960;2023-02-24T07:43:49;5.20;99.90
35246;DHT22;21379;50.962;6.960;2023-02-24T07:46:18;5.30;99.90
35246;DHT22;21379;50.962;6.960;2023-02-24T07:48:45;5.20;99.90
35246;DHT22;21379;50.962;6.960;2023-02-24T07:51:14;5.30;99.90
35246;DHT22;21379;50.962;6.960;2023-02-24T07:53:41;5.30;99.90
35246;DHT22;21379;50.962;6.960;2023-02-24T07:56:10;5.30;99.90
35246;DHT22;21379;50.962;6.960;2023-02-24T07:58:40;5.30;99.90
35246;DHT22;21379;50.962;6.960;2023-02-24T08:01:09;5.30;99.90
35246;DHT22;21379;50.962;6.960;2023-02-24T08:03:47;5.40;99.90
35246;DHT22;21379;50.962;6.960;2023-02-24T08:06:14;5.30;99.90
35246;DHT22;21379;50.962;6.960;2023-02-24T08:08:51;5.30;99.90
35246;DHT22;21379;50.962;6.960;2023-02-24T08:11:41;5.40;99.90
35246;DHT22;21379;50.962;6.960;2023-02-24T08:14:12;5.50;99.90
35246;DHT22;21379;50.962;6.960;2023-02-24T08:16:40;5.50;99.90
35246;DHT22;21379;50.962;6.960;2023-02-24T08:19:12;5.60;99.90
35246;DHT22;21379;50.962;6.960;2023-02-24T08:21:39;5.60;99.90
35246;DHT22;21379;50.962;6.960;2023-02-24T08:24:14;5.40;99.90
35246;DHT22;21379;50.962;6.960;2023-02-24T08:26:43;5.60;99.90
35246;DHT22;21379;50.962;6.960;2023-02-24T08:29:11;5.60;99.90
35246;DHT22;21379;50.962;6.960;2023-02-24T08:31:38;5.60;99.90
35246;DHT22;21379;50.962;6.960;2023-02-24T08:34:05;5.70;99.90
35246;DHT22;21379;50.962;6.960;2023-02-24T08:36:32;5.70;99.90
35246;DHT22;21379;50.962;6.960;2023-02-24T08:38:58;5.70;99.90
35246;DHT22;21379;50.962;6.960;2023-02-24T08:41:26;5.80;99.90
35246;DHT22;21379;50.962;6.960;2023-02-24T08:44:11;5.80;99.90
35246;DHT22;21379;50.962;6.960;2023-02-24T08:46:43;5.90;99.90
35246;DHT22;21379;50.962;6.960;2023-02-24T08:49:10;5.90;99.90
35246;DHT22;21379;50.962;6.960;2023-02-24T08:51:42;5.90;99.90
35246;DHT22;21379;50.962;6.960;2023-02-24T08:54:11;5.90;99.90
35246;DHT22;21379;50.962;6.960;2023-02-24T08:56:40;6.00;99.90
35246;DHT22;21379;50.962;6.960;2023-02-24T08:59:12;5.80;99.90
35246;DHT22;21379;50.962;6.960;2023-02-24T09:01:54;5.80;99.90
35246;DHT22;21379;50.962;6.960;2023-02-24T09:04:41;5.90;99.90
35246;DHT22;21379;50.962;6.960;2023-02-24T09:07:13;5.90;99.90
35246;DHT22;21379;50.962;6.960;2023-02-24T09:09:41;5.90;99.90
35246;DHT22;21379;50.962;6.960;2023-02-24T09:12:08;6.00;99.90
35246;DHT22;21379;50.962;6.960;2023-02-24T09:14:38;6.10;99.90
35246;DHT22;21379;50.962;6.960;2023-02-24T09:17:06;6.00;99.90
35246;DHT22;21379;50.962;6.960;2023-02-24T09:19:39;6.00;99.90
35246;DHT22;21379;50.962;6.960;2023-02-24T09:22:28;6.00;99.90
35246;DHT22;21379;50.962;6.960;2023-02-24T09:25:07;6.10;99.90
35246;DHT22;21379;50.962;6.960;2023-02-24T09:27:46;6.00;99.90
35246;DHT22;21379;50.962;6.960;2023-02-24T09:30:19;6.00;99.90
35246;DHT22;21379;50.962;6.960;2023-02-24T09:33:12;6.00;99.90
35246;DHT22;21379;50.962;6.960;2023-02-24T09:35:58;6.20;99.90
35246;DHT22;21379;50.962;6.960;2023-02-24T09:38:40;6.30;99.90
35246;DHT22;21379;50.962;6.960;2023-02-24T09:41:41;6.30;99.90
35246;DHT22;21379;50.962;6.960;2023-02-24T09:44:27;6.40;99.90
35246;DHT22;21379;50.962;6.960;2023-02-24T09:47:04;6.40;99.90
35246;DHT22;21379;50.962;6.960;2023-02-24T09:49:45;6.40;99.90
35246;DHT22;21379;50.962;6.960;2023-02-24T09:52:14;6.40;99.90
35246;DHT22;21379;50.962;6.960;2023-02-24T09:54:44;6.60;99.90
35246;DHT22;21379;50.962;6.960;2023-02-24T09:57:44;6.60;99.90
35246;DHT22;21379;50.962;6.960;2023-02-24T10:00:46;6.60;99.90
35246;DHT22;21379;50.962;6.960;2023-02-24T10:03:20;6.40;99.90
35246;DHT22;21379;50.962;6.960;2023-02-24T10:06:13;6.40;99.90
35246;DHT22;21379;50.962;6.960;2023-02-24T10:08:47;6.40;99.90
35246;DHT22;21379;50.962;6.960;2023-02-24T10:11:15;6.40;99.90
35246;DHT22;21379;50.962;6.960;2023-02-24T10:13:58;6.30;99.90
35246;DHT22;21379;50.962;6.960;2023-02-24T10:16:26;6.40;99.90
35246;DHT22;21379;50.962;6.960;2023-02-24T10:19:12;6.50;99.90
35246;DHT22;21379;50.962;6.960;2023-02-24T10:21:47;6.60;99.90
35246;DHT22;21379;50.962;6.960;2023-02-24T10:24:28;6.60;99.90
35246;DHT22;21379;50.962;6.960;2023-02-24T10:27:05;6.70;99.90
35246;DHT22;21379;50.962;6.960;2023-02-24T10:29:48;6.60;99.90
35246;DHT22;21379;50.962;6.960;2023-02-24T10:32:23;6.70;99.90
35246;DHT22;21379;50.962;6.960;2023-02-24T10:35:00;6.50;99.90
35246;DHT22;21379;50.962;6.960;2023-02-24T10:37:27;6.50;99.90
35246;DHT22;21379;50.962;6.960;2023-02-24T10:39:55;6.40;99.90
35246;DHT22;21379;50.962;6.960;2023-02-24T10:42:24;6.50;99.90
35246;DHT22;21379;50.962;6.960;2023-02-24T10:45:03;6.60;99.90
35246;DHT22;21379;50.962;6.960;2023-02-24T10:47:37;6.60;99.90
35246;DHT22;21379;50.962;6.960;2023-02-24T10:50:20;6.60;99.90
35246;DHT22;21379;50.962;6.960;2023-02-24T10:52:52;6.70;99.90
35246;DHT22;21379;50.962;6.960;2023-02-24T10:55:36;6.50;99.90
35246;DHT22;21379;50.962;6.960;2023-02-24T10:58:29;6.40;99.90
35246;DHT22;21379;50.962;6.960;2023-02-24T11:01:13;6.50;99.90
35246;DHT22;21379;50.962;6.960;2023-02-24T11:03:48;6.50;99.90
35246;DHT22;21379;50.962;6.960;2023-02-24T11:06:28;6.40;99.90
35246;DHT22;21379;50.962;6.960;2023-02-24T11:09:21;6.40;99.90
35246;DHT22;21379;50.962;6.960;2023-02-24T11:12:13;6.40;99.90
35246;DHT22;21379;50.962;6.960;2023-02-24T11:15:02;6.40;99.90
35246;DHT22;21379;50.962;6.960;2023-02-24T11:17:49;6.30;99.90
35246;DHT22;21379;50.962;6.960;2023-02-24T11:20:23;6.30;99.90
35246;DHT22;21379;50.962;6.960;2023-02-24T11:22:52;6.30;99.90
35246;DHT22;21379;50.962;6.960;2023-02-24T11:25:23;6.20;99.90
35246;DHT22;21379;50.962;6.960;2023-02-24T11:27:51;6.20;99.90
35246;DHT22;21379;50.962;6.960;2023-02-24T11:30:26;6.20;99.90
35246;DHT22;21379;50.962;6.960;2023-02-24T11:33:10;6.20;99.90
35246;DHT22;21379;50.962;6.960;2023-02-24T11:35:49;6.00;99.90
35246;DHT22;21379;50.962;6.960;2023-02-24T11:38:29;6.00;99.90
35246;DHT22;21379;50.962;6.960;2023-02-24T11:41:04;6.00;99.90
35246;DHT22;21379;50.962;6.960;2023-02-24T11:43:36;5.90;99.90
35246;DHT22;21379;50.962;6.960;2023-02-24T11:46:08;5.80;99.90
35246;DHT22;21379;50.962;6.960;2023-02-24T11:48:38;5.70;99.90
35246;DHT22;21379;50.962;6.960;2023-02-24T11:51:10;5.70;99.90
35246;DHT22;21379;50.962;6.960;2023-02-24T11:53:45;5.70;99.90
35246;DHT22;21379;50.962;6.960;2023-02-24T11:56:17;5.70;99.90
35246;DHT22;21379;50.962;6.960;2023-02-24T11:58:51;5.70;99.90
35246;DHT22;21379;50.962;6.960;2023-02-24T12:01:24;5.60;99.90
35246;DHT22;21379;50.962;6.960;2023-02-24T12:03:59;5.50;99.90
35246;DHT22;21379;50.962;6.960;2023-02-24T12:06:32;5.50;99.90
35246;DHT22;21379;50.962;6.960;2023-02-24T12:09:09;5.60;99.90
35246;DHT22;21379;50.962;6.960;2023-02-24T12:11:43;5.50;99.90
35246;DHT22;21379;50.962;6.960;2023-02-24T12:14:18;5.60;99.90
35246;DHT22;21379;50.962;6.960;2023-02-24T12:16:52;5.60;99.90
35246;DHT22;21379;50.962;6.960;2023-02-24T12:19:26;5.60;99.90
35246;DHT22;21379;50.962;6.960;2023-02-24T12:21:58;5.50;99.90
35246;DHT22;21379;50.962;6.960;2023-02-24T12:24:33;5.50;99.90
35246;DHT22;21379;50.962;6.960;2023-02-24T12:27:05;5.50;99.90
35246;DHT22;21379;50.962;6.960;2023-02-24T12:29:58;5.50;99.90
35246;DHT22;21379;50.962;6.960;2023-02-24T12:32:42;5.60;99.90
35246;DHT22;21379;50.962;6.960;2023-02-24T12:35:18;5.60;99.90
35246;DHT22;21379;50.962;6.960;2023-02-24T12:38:01;5.60;99.90
35246;DHT22;21379;50.962;6.960;2023-02-24T12:40:39;5.50;99.90
35246;DHT22;21379;50.962;6.960;2023-02-24T12:43:18;5.50;99.90
35246;DHT22;21379;50.962;6.960;2023-02-24T12:45:51;5.50;99.90
35246;DHT22;21379;50.962;6.960;2023-02-24T12:48:35;5.50;99.90
35246;DHT22;21379;50.962;6.960;2023-02-24T12:51:07;5.50;99.90
35246;DHT22;21379;50.962;6.960;2023-02-24T12:53:43;5.40;99.90
35246;DHT22;21379;50.962;6.960;2023-02-24T12:56:19;5.40;99.90
35246;DHT22;21379;50.962;6.960;2023-02-24T12:58:49;5.30;99.90
35246;DHT22;21379;50.962;6.960;2023-02-24T13:01:20;5.20;99.90
35246;DHT22;21379;50.962;6.960;2023-02-24T13:04:03;5.20;99.90
35246;DHT22;21379;50.962;6.960;2023-02-24T13:06:44;5.20;99.90
35246;DHT22;21379;50.962;6.960;2023-02-24T13:09:21;5.00;99.90
35246;DHT22;21379;50.962;6.960;2023-02-24T13:11:54;5.00;99.90
35246;DHT22;21379;50.962;6.960;2023-02-24T13:14:27;5.00;99.90
35246;DHT22;21379;50.962;6.960;2023-02-24T13:17:15;4.90;99.90
35246;DHT22;21379;50.962;6.960;2023-02-24T13:19:46;5.00;99.90
35246;DHT22;21379;50.962;6.960;2023-02-24T13:22:26;5.00;99.90
35246;DHT22;21379;50.962;6.960;2023-02-24T13:24:56;5.00;99.90
35246;DHT22;21379;50.962;6.960;2023-02-24T13:27:26;5.00;99.90
35246;DHT22;21379;50.962;6.960;2023-02-24T13:29:55;4.90;99.90
35246;DHT22;21379;50.962;6.960;2023-02-24T13:32:25;4.90;99.90
35246;DHT22;21379;50.962;6.960;2023-02-24T13:34:54;4.90;99.90
35246;DHT22;21379;50.962;6.960;2023-02-24T13:37:33;4.90;99.90
35246;DHT22;21379;50.962;6.960;2023-02-24T13:40:23;4.90;99.90
35246;DHT22;21379;50.962;6.960;2023-02-24T13:42:58;4.80;99.90
35246;DHT22;21379;50.962;6.960;2023-02-24T13:45:29;4.80;99.90
35246;DHT22;21379;50.962;6.960;2023-02-24T13:48:19;4.90;99.90
35246;DHT22;21379;50.962;6.960;2023-02-24T13:51:08;4.80;99.90
35246;DHT22;21379;50.962;6.960;2023-02-24T13:53:54;4.80;99.90
35246;DHT22;21379;50.962;6.960;2023-02-24T13:56:34;4.90;99.90
35246;DHT22;21379;50.962;6.960;2023-02-24T13:59:15;4.90;99.90
35246;DHT22;21379;50.962;6.960;2023-02-24T14:01:47;5.00;99.90
35246;DHT22;21379;50.962;6.960;2023-02-24T14:04:17;4.90;99.90
35246;DHT22;21379;50.962;6.960;2023-02-24T14:06:49;4.90;99.90
35246;DHT22;21379;50.962;6.960;2023-02-24T14:09:21;5.00;99.90
35246;DHT22;21379;50.962;6.960;2023-02-24T14:11:53;5.00;99.90
35246;DHT22;21379;50.962;6.960;2023-02-24T14:14:24;5.00;99.90
35246;DHT22;21379;50.962;6.960;2023-02-24T14:16:52;5.10;99.90
35246;DHT22;21379;50.962;6.960;2023-02-24T14:19:19;5.10;99.90
35246;DHT22;21379;50.962;6.960;2023-02-24T14:21:50;5.10;99.90
35246;DHT22;21379;50.962;6.960;2023-02-24T14:24:17;5.10;99.90
35246;DHT22;21379;50.962;6.960;2023-02-24T14:26:49;5.10;99.90
35246;DHT22;21379;50.962;6.960;2023-02-24T14:29:22;5.00;99.90
35246;DHT22;21379;50.962;6.960;2023-02-24T14:31:54;5.10;99.90
35246;DHT22;21379;50.962;6.960;2023-02-24T14:34:23;5.10;99.90
35246;DHT22;21379;50.962;6.960;2023-02-24T14:36:53;5.10;99.90
35246;DHT22;21379;50.962;6.960;2023-02-24T14:39:21;5.10;99.90
35246;DHT22;21379;50.962;6.960;2023-02-24T14:41:50;5.10;99.90
35246;DHT22;21379;50.962;6.960;2023-02-24T14:44:23;5.10;99.90
35246;DHT22;21379;50.962;6.960;2023-02-24T14:46:53;5.10;99.90
35246;DHT22;21379;50.962;6.960;2023-02-24T14:49:25;5.10;99.90
35246;DHT22;21379;50.962;6.960;2023-02-24T14:51:58;5.10;99.90
35246;DHT22;21379;50.962;6.960;2023-02-24T14:54:36;5.10;99.90
35246;DHT22;21379;50.962;6.960;2023-02-24T14:57:05;5.20;99.90
35246;DHT22;21379;50.962;6.960;2023-02-24T14:59:37;5.20;99.90
35246;DHT22;21379;50.962;6.960;2023-02-24T15:02:13;5.20;99.90
35246;DHT22;21379;50.962;6.960;2023-02-24T15:04:41;5.20;99.90
35246;DHT22;21379;50.962;6.960;2023-02-24T15:07:17;5.20;99.90
35246;DHT22;21379;50.962;6.960;2023-02-24T15:09:48;5.20;99.90
35246;DHT22;21379;50.962;6.960;2023-02-24T15:12:25;5.20;99.90
35246;DHT22;21379;50.962;6.960;2023-02-24T15:14:56;5.20;99.90
35246;DHT22;21379;50.962;6.960;2023-02-24T15:17:28;5.20;99.90
35246;DHT22;21379;50.962;6.960;2023-02-24T15:19:55;5.30;99.90
35246;DHT22;21379;50.962;6.960;2023-02-24T15:22:24;5.30;99.90
35246;DHT22;21379;50.962;6.960;2023-02-24T15:24:53;5.30;99.90
35246;DHT22;21379;50.962;6.960;2023-02-24T15:27:25;5.20;99.90
35246;DHT22;21379;50.962;6.960;2023-02-24T15:30:01;5.30;99.90
35246;DHT22;21379;50.962;6.960;2023-02-24T15:32:32;5.30;99.90
35246;DHT22;21379;50.962;6.960;2023-02-24T15:35:03;5.30;99.90
35246;DHT22;21379;50.962;6.960;2023-02-24T15:37:38;5.30;99.90
35246;DHT22;21379;50.962;6.960;2023-02-24T15:42:53;5.30;99.90
35246;DHT22;21379;50.962;6.960;2023-02-24T15:45:27;5.30;99.90
35246;DHT22;21379;50.962;6.960;2023-02-24T15:47:56;5.30;99.90
35246;DHT22;21379;50.962;6.960;2023-02-24T15:50:25;5.30;99.90
35246;DHT22;21379;50.962;6.960;2023-02-24T15:52:59;5.30;99.90
35246;DHT22;21379;50.962;6.960;2023-02-24T15:55:29;5.30;99.90
35246;DHT22;21379;50.962;6.960;2023-02-24T15:58:00;5.30;99.90
35246;DHT22;21379;50.962;6.960;2023-02-24T16:00:30;5.30;99.90
35246;DHT22;21379;50.962;6.960;2023-02-24T16:02:59;5.30;99.90
35246;DHT22;21379;50.962;6.960;2023-02-24T16:05:28;5.30;99.90
35246;DHT22;21379;50.962;6.960;2023-02-24T16:07:55;5.40;99.90
35246;DHT22;21379;50.962;6.960;2023-02-24T16:10:23;5.40;99.90
35246;DHT22;21379;50.962;6.960;2023-02-24T16:12:53;5.40;99.90
35246;DHT22;21379;50.962;6.960;2023-02-24T16:15:23;5.40;99.90
35246;DHT22;21379;50.962;6.960;2023-02-24T16:17:51;5.40;99.90
35246;DHT22;21379;50.962;6.960;2023-02-24T16:20:21;5.50;99.90
35246;DHT22;21379;50.962;6.960;2023-02-24T16:22:55;5.50;99.90
35246;DHT22;21379;50.962;6.960;2023-02-24T16:25:23;5.60;99.90
35246;DHT22;21379;50.962;6.960;2023-02-24T16:27:51;5.60;99.90
35246;DHT22;21379;50.962;6.960;2023-02-24T16:30:23;5.50;99.90